Time;durP1;ratioP1;P1;durP2;ratioP2;P2;SDS_P1;SDS_P2;PMS_P1;PMS_P2;Temp;Humidity;BMP_temperature;BMP_pressure;BME280_temperature;BME280_humidity;BME280_pressure;Samples;Min_cycle;Max_cycle;Signal;HPM_P1;HPM_P2
2022/06/11 00:00:31;;;;;;;2.03;1.93;;;26.20;49.60;;;;;;5059370;28;20423;-83
2022/06/11 00:02:59;;;;;;;2.00;1.80;;;26.20;49.60;;;;;;5060262;28;20485;-84
2022/06/11 00:05:27;;;;;;;1.90;1.80;;;26.20;49.60;;;;;;5059477;28;20450;-84
2022/06/11 00:07:58;;;;;;;1.77;1.67;;;26.20;49.60;;;;;;5060393;28;20474;-84
2022/06/11 00:10:26;;;;;;;2.10;1.90;;;26.20;49.60;;;;;;5060564;28;20513;-84
2022/06/11 00:12:54;;;;;;;2.07;1.97;;;26.20;49.50;;;;;;5060237;28;20486;-84
2022/06/11 00:15:22;;;;;;;2.07;1.87;;;26.20;49.60;;;;;;5060301;28;20553;-84
2022/06/11 00:17:51;;;;;;;1.97;1.87;;;26.20;49.50;;;;;;5060576;28;20466;-84
2022/06/11 00:20:20;;;;;;;1.90;1.80;;;26.10;49.40;;;;;;5060018;28;20452;-85
2022/06/11 00:22:48;;;;;;;1.67;1.60;;;26.10;49.50;;;;;;5065515;28;20444;-85
2022/06/11 00:25:17;;;;;;;1.80;1.70;;;26.20;49.60;;;;;;5060124;28;20459;-84
2022/06/11 00:27:45;;;;;;;2.00;1.90;;;26.10;49.50;;;;;;5059636;28;20465;-83
2022/06/11 00:30:13;;;;;;;1.43;1.33;;;26.10;49.60;;;;;;5059702;28;20446;-84
2022/06/11 00:32:42;;;;;;;1.90;1.80;;;26.10;50.10;;;;;;5059882;28;20512;-84
2022/06/11 00:35:10;;;;;;;2.60;2.10;;;26.10;49.60;;;;;;5059499;28;20518;-82
2022/06/11 00:37:38;;;;;;;1.80;1.70;;;26.10;49.60;;;;;;5059431;28;20504;-82
2022/06/11 00:40:08;;;;;;;1.90;1.80;;;26.10;49.60;;;;;;5060191;28;20447;-84
2022/06/11 00:42:37;;;;;;;1.70;1.70;;;26.10;49.60;;;;;;5059173;28;20997;-84
2022/06/11 00:45:14;;;;;;;1.83;1.73;;;26.00;49.50;;;;;;5058676;28;20474;-84
2022/06/11 00:47:43;;;;;;;1.90;1.80;;;26.10;49.70;;;;;;5057989;28;20491;-84
2022/06/11 00:50:26;;;;;;;1.90;1.80;;;26.10;49.70;;;;;;5058864;28;20542;-82
2022/06/11 00:52:54;;;;;;;1.70;1.60;;;26.10;49.60;;;;;;5058733;28;20551;-83
2022/06/11 00:55:24;;;;;;;1.80;1.70;;;26.00;49.60;;;;;;5058237;28;20425;-83
2022/06/11 00:57:56;;;;;;;2.17;1.77;;;26.00;49.60;;;;;;5059112;28;20489;-84
2022/06/11 01:00:25;;;;;;;2.13;2.03;;;26.00;49.60;;;;;;5058702;28;20473;-81
2022/06/11 01:02:53;;;;;;;1.80;1.70;;;26.00;49.60;;;;;;5058013;28;21001;-84
2022/06/11 01:05:24;;;;;;;1.87;1.77;;;26.00;49.60;;;;;;5058037;28;20431;-84
2022/06/11 01:08:24;;;;;;;1.37;1.37;;;26.00;49.60;;;;;;5057369;28;20445;-85
2022/06/11 01:11:04;;;;;;;2.10;2.00;;;26.00;49.60;;;;;;5058330;28;20449;-84
2022/06/11 01:13:36;;;;;;;1.93;1.80;;;26.00;49.80;;;;;;5058946;28;20440;-84
2022/06/11 01:16:06;;;;;;;1.90;1.80;;;25.90;49.70;;;;;;5057457;28;20529;-84
2022/06/11 01:18:43;;;;;;;2.07;1.97;;;25.90;49.80;;;;;;5057431;28;20442;-84
2022/06/11 01:21:18;;;;;;;2.00;1.90;;;26.00;49.80;;;;;;5057605;28;20532;-83
2022/06/11 01:24:20;;;;;;;1.90;1.80;;;25.90;49.80;;;;;;5058170;28;20420;-84
2022/06/11 01:27:01;;;;;;;1.63;1.53;;;25.90;49.80;;;;;;5055918;28;20508;-84
2022/06/11 01:29:54;;;;;;;1.80;1.70;;;25.90;49.80;;;;;;5058340;28;20425;-84
2022/06/11 01:32:26;;;;;;;2.00;1.90;;;25.90;49.80;;;;;;5057162;28;20489;-84
2022/06/11 01:35:02;;;;;;;1.97;1.70;;;25.90;49.90;;;;;;5057382;28;20482;-84
2022/06/11 01:37:33;;;;;;;2.03;1.83;;;25.80;49.90;;;;;;5057353;28;20496;-84
2022/06/11 01:40:02;;;;;;;1.73;1.67;;;25.80;49.90;;;;;;5057245;28;20478;-84
2022/06/11 01:42:34;;;;;;;1.90;1.80;;;25.80;49.90;;;;;;5057531;28;20449;-85
2022/06/11 01:45:07;;;;;;;1.90;1.80;;;25.80;50.00;;;;;;5056523;28;20440;-86
2022/06/11 01:47:35;;;;;;;2.30;2.20;;;25.80;50.10;;;;;;5057110;28;20506;-84
2022/06/11 01:50:04;;;;;;;1.70;1.60;;;25.80;50.00;;;;;;5056968;28;20508;-84
2022/06/11 01:52:44;;;;;;;2.00;1.90;;;25.70;50.00;;;;;;5059584;28;20467;-85
2022/06/11 01:55:15;;;;;;;1.90;1.80;;;25.70;50.60;;;;;;5060852;28;20476;-84
2022/06/11 01:58:00;;;;;;;1.93;1.83;;;25.70;50.20;;;;;;5060007;28;20477;-84
2022/06/11 02:00:30;;;;;;;1.90;1.80;;;25.70;50.10;;;;;;5060597;28;20446;-84
2022/06/11 02:03:16;;;;;;;1.77;1.70;;;25.70;50.20;;;;;;5060661;28;20441;-84
2022/06/11 02:05:51;;;;;;;1.87;1.80;;;25.60;50.10;;;;;;5070379;28;20417;-85
2022/06/11 02:08:23;;;;;;;2.03;1.93;;;25.60;50.20;;;;;;5070813;28;20474;-84
2022/06/11 02:10:55;;;;;;;1.70;1.70;;;25.60;50.20;;;;;;5068447;28;20412;-84
2022/06/11 02:13:28;;;;;;;2.13;2.03;;;25.60;50.30;;;;;;5061022;28;20521;-84
2022/06/11 02:15:59;;;;;;;1.80;1.70;;;25.60;50.30;;;;;;5061326;28;20448;-84
2022/06/11 02:18:27;;;;;;;1.93;1.83;;;25.50;50.20;;;;;;5059907;28;20431;-83
2022/06/11 02:20:57;;;;;;;1.73;1.63;;;25.60;50.30;;;;;;5060789;28;20452;-83
2022/06/11 02:23:27;;;;;;;2.10;1.97;;;25.50;50.30;;;;;;5061874;28;20442;-84
2022/06/11 02:25:57;;;;;;;2.20;2.10;;;25.50;50.30;;;;;;5061078;28;20464;-84
2022/06/11 02:28:28;;;;;;;1.70;1.70;;;25.50;50.30;;;;;;5061069;28;20489;-85
2022/06/11 02:30:59;;;;;;;1.90;1.80;;;25.40;50.30;;;;;;5060972;28;20443;-84
2022/06/11 02:33:27;;;;;;;1.80;1.70;;;25.40;50.30;;;;;;5060880;28;20421;-84
2022/06/11 02:35:57;;;;;;;2.23;2.10;;;25.40;50.40;;;;;;5060922;28;20438;-84
2022/06/11 02:38:26;;;;;;;2.30;2.20;;;25.40;50.40;;;;;;5060502;28;20504;-84
2022/06/11 02:40:55;;;;;;;2.30;1.93;;;25.40;50.30;;;;;;5060861;28;20512;-84
2022/06/11 02:43:23;;;;;;;2.00;1.90;;;25.40;50.40;;;;;;5060691;28;20421;-84
2022/06/11 02:45:51;;;;;;;1.97;1.87;;;25.40;50.40;;;;;;5059735;28;20480;-84
2022/06/11 02:48:21;;;;;;;1.97;1.80;;;25.40;50.30;;;;;;5060061;28;20470;-84
2022/06/11 02:50:49;;;;;;;2.27;2.07;;;25.30;50.40;;;;;;5060903;28;20465;-85
2022/06/11 02:53:17;;;;;;;2.00;1.90;;;25.30;50.40;;;;;;5060335;28;20459;-83
2022/06/11 02:55:46;;;;;;;2.37;2.27;;;25.30;50.50;;;;;;5056106;28;20434;-83
2022/06/11 02:58:14;;;;;;;1.90;1.80;;;25.20;50.40;;;;;;5055598;28;20451;-85
2022/06/11 03:00:47;;;;;;;2.00;1.90;;;25.20;50.50;;;;;;5055350;28;20456;-84
2022/06/11 03:03:15;;;;;;;2.07;1.90;;;25.20;50.40;;;;;;5053997;28;20445;-85
2022/06/11 03:05:45;;;;;;;1.87;1.77;;;25.20;50.50;;;;;;5054785;28;20455;-85
2022/06/11 03:08:14;;;;;;;2.20;2.10;;;25.20;50.40;;;;;;5055749;28;20506;-84
2022/06/11 03:10:42;;;;;;;3.53;2.13;;;25.20;50.50;;;;;;5059981;28;20485;-85
2022/06/11 03:13:09;;;;;;;2.57;2.37;;;25.20;50.60;;;;;;5062875;28;20512;-84
2022/06/11 03:15:40;;;;;;;1.80;1.70;;;25.20;50.60;;;;;;5058208;28;20434;-85
2022/06/11 03:18:09;;;;;;;2.13;2.03;;;25.20;51.20;;;;;;5057850;28;20446;-83
2022/06/11 03:20:37;;;;;;;1.87;1.77;;;25.20;50.70;;;;;;5057104;28;20446;-85
2022/06/11 03:23:06;;;;;;;2.60;2.00;;;25.20;50.50;;;;;;5061189;28;20459;-85
2022/06/11 03:25:35;;;;;;;1.77;1.67;;;25.20;50.70;;;;;;5061265;28;20436;-85
2022/06/11 03:28:06;;;;;;;2.10;2.00;;;25.20;50.60;;;;;;5061184;28;20528;-85
2022/06/11 03:30:35;;;;;;;2.00;1.90;;;25.10;50.50;;;;;;5061375;28;20504;-85
2022/06/11 03:33:03;;;;;;;1.90;1.80;;;25.10;50.60;;;;;;5060704;28;20520;-84
2022/06/11 03:35:31;;;;;;;2.10;2.00;;;25.10;50.70;;;;;;5059810;28;20490;-83
2022/06/11 03:37:59;;;;;;;2.30;2.10;;;25.10;50.60;;;;;;5064939;28;20417;-83
2022/06/11 03:40:29;;;;;;;2.17;2.07;;;25.10;50.70;;;;;;5060562;28;20442;-83
2022/06/11 03:42:57;;;;;;;2.97;1.90;;;25.10;50.60;;;;;;5059091;28;20441;-83
2022/06/11 03:45:25;;;;;;;2.67;1.90;;;25.10;50.70;;;;;;5058934;28;20494;-83
2022/06/11 03:47:53;;;;;;;1.80;1.70;;;25.10;50.60;;;;;;5059810;28;20453;-84
2022/06/11 03:50:28;;;;;;;3.13;1.80;;;25.10;50.80;;;;;;5060884;28;20443;-84
2022/06/11 03:52:57;;;;;;;2.13;2.03;;;25.10;50.70;;;;;;5060063;28;20497;-84
2022/06/11 03:55:26;;;;;;;1.97;1.87;;;25.10;50.70;;;;;;5058574;28;20467;-85
2022/06/11 03:57:55;;;;;;;1.67;1.60;;;25.10;50.70;;;;;;5059587;28;20417;-84
2022/06/11 04:03:07;;;;;;;2.00;1.90;;;25.00;50.60;;;;;;5058142;28;20511;-84
2022/06/11 04:05:36;;;;;;;2.27;2.10;;;25.00;50.70;;;;;;5060119;28;20446;-84
2022/06/11 04:08:05;;;;;;;2.17;2.07;;;25.00;50.50;;;;;;5060319;28;20449;-84
2022/06/11 04:10:33;;;;;;;2.00;1.90;;;25.00;50.70;;;;;;5059806;28;20454;-84
2022/06/11 04:13:03;;;;;;;2.07;1.97;;;25.00;50.70;;;;;;5055545;28;20466;-84
2022/06/11 04:15:31;;;;;;;1.90;1.90;;;25.00;50.60;;;;;;5058142;28;20452;-84
2022/06/11 04:17:59;;;;;;;2.57;2.37;;;25.00;50.60;;;;;;5057816;28;20449;-84
2022/06/11 04:20:27;;;;;;;2.00;1.90;;;25.00;50.60;;;;;;5057232;28;20975;-84
2022/06/11 04:22:55;;;;;;;2.03;1.93;;;25.00;50.60;;;;;;5056670;28;20445;-84
2022/06/11 04:25:24;;;;;;;2.00;1.80;;;25.00;50.70;;;;;;5056890;28;20429;-85
2022/06/11 04:27:53;;;;;;;2.07;1.97;;;25.00;50.60;;;;;;5059218;28;20470;-84
2022/06/11 04:30:23;;;;;;;2.03;1.93;;;25.00;50.60;;;;;;5055583;28;20516;-83
2022/06/11 04:32:51;;;;;;;2.30;2.20;;;25.00;50.70;;;;;;5056993;28;20532;-84
2022/06/11 04:35:19;;;;;;;2.00;1.90;;;25.00;50.70;;;;;;5055914;28;20504;-84
2022/06/11 04:37:47;;;;;;;1.80;1.70;;;25.00;50.70;;;;;;5055158;28;20509;-84
2022/06/11 04:40:16;;;;;;;2.07;2.00;;;25.00;50.70;;;;;;5055320;28;20499;-84
2022/06/11 04:42:45;;;;;;;2.00;1.90;;;25.00;50.70;;;;;;5055163;28;20487;-84
2022/06/11 04:45:13;;;;;;;2.07;2.00;;;25.10;50.70;;;;;;5055636;28;20471;-84
2022/06/11 04:47:43;;;;;;;2.17;1.97;;;25.10;50.50;;;;;;5054609;28;20500;-84
2022/06/11 04:50:13;;;;;;;1.90;1.80;;;25.10;50.50;;;;;;5055713;28;20537;-84
2022/06/11 04:52:41;;;;;;;2.10;2.00;;;25.10;50.40;;;;;;5055472;28;20476;-84
2022/06/11 04:55:09;;;;;;;2.10;1.87;;;25.10;50.50;;;;;;5055558;28;20487;-84
2022/06/11 04:57:37;;;;;;;2.30;2.20;;;25.10;50.70;;;;;;5055216;28;20938;-84
2022/06/11 05:00:07;;;;;;;2.63;2.13;;;25.00;50.60;;;;;;5055085;28;20537;-84
2022/06/11 05:02:35;;;;;;;2.37;2.17;;;25.10;50.40;;;;;;5054602;28;20476;-84
2022/06/11 05:05:06;;;;;;;2.07;1.97;;;25.10;50.70;;;;;;5053815;28;20449;-84
2022/06/11 05:07:34;;;;;;;2.37;2.27;;;25.10;50.70;;;;;;5054402;28;20441;-84
2022/06/11 05:10:03;;;;;;;2.63;2.20;;;25.10;50.80;;;;;;5054285;28;20449;-84
2022/06/11 05:12:31;;;;;;;3.23;2.47;;;25.10;50.70;;;;;;5055308;28;20533;-84
2022/06/11 05:14:59;;;;;;;2.43;2.33;;;25.20;50.60;;;;;;5054342;28;20425;-85
2022/06/11 05:17:27;;;;;;;2.00;1.90;;;25.20;50.80;;;;;;5052548;28;20485;-84
2022/06/11 05:19:55;;;;;;;2.63;2.43;;;25.10;50.70;;;;;;5052272;28;20458;-84
2022/06/11 05:22:24;;;;;;;2.80;2.70;;;25.20;51.30;;;;;;5055099;28;20516;-84
2022/06/11 05:24:52;;;;;;;2.50;2.30;;;25.20;50.70;;;;;;5052666;28;20461;-83
2022/06/11 05:27:21;;;;;;;2.30;2.20;;;25.20;50.60;;;;;;5054150;28;20523;-84
2022/06/11 05:29:52;;;;;;;2.53;2.43;;;25.20;50.80;;;;;;5054082;28;20505;-84
2022/06/11 05:32:20;;;;;;;2.33;2.23;;;25.20;50.70;;;;;;5056894;28;20437;-84
2022/06/11 05:34:49;;;;;;;2.80;2.70;;;25.20;50.70;;;;;;5054415;28;20450;-84
2022/06/11 05:37:17;;;;;;;3.60;2.47;;;25.20;50.80;;;;;;5053397;28;20417;-83
2022/06/11 05:39:47;;;;;;;2.70;2.50;;;25.20;50.80;;;;;;5055237;28;20417;-84
2022/06/11 05:42:16;;;;;;;2.87;2.70;;;25.20;50.70;;;;;;5055445;28;20460;-84
2022/06/11 05:44:44;;;;;;;2.63;2.30;;;25.20;50.80;;;;;;5055175;28;20421;-84
2022/06/11 05:47:14;;;;;;;2.50;2.30;;;25.20;50.80;;;;;;5054645;28;20508;-84
2022/06/11 05:49:43;;;;;;;2.70;2.60;;;25.20;50.90;;;;;;5053966;28;20553;-85
2022/06/11 05:52:14;;;;;;;2.30;2.20;;;25.20;50.90;;;;;;5055170;28;20550;-84
2022/06/11 05:54:42;;;;;;;2.40;2.30;;;25.20;50.90;;;;;;5054370;28;20529;-84
2022/06/11 05:57:14;;;;;;;4.67;2.70;;;25.20;50.80;;;;;;5055122;28;20443;-85
2022/06/11 05:59:45;;;;;;;2.30;2.10;;;25.20;50.70;;;;;;5055396;28;20421;-84
2022/06/11 06:02:14;;;;;;;2.50;2.40;;;25.20;50.60;;;;;;5054432;28;20472;-84
2022/06/11 06:04:42;;;;;;;2.17;2.07;;;25.20;50.90;;;;;;5053766;28;20467;-84
2022/06/11 06:07:11;;;;;;;2.00;1.90;;;25.30;50.80;;;;;;5053147;28;20455;-85
2022/06/11 06:09:39;;;;;;;2.40;2.30;;;25.30;50.90;;;;;;5053088;28;20509;-84
2022/06/11 06:12:08;;;;;;;2.10;2.00;;;25.30;50.70;;;;;;5053604;28;20501;-84
2022/06/11 06:14:38;;;;;;;2.23;2.13;;;25.30;50.80;;;;;;5055134;28;20452;-84
2022/06/11 06:17:06;;;;;;;2.23;2.13;;;25.30;50.60;;;;;;5055676;28;20485;-85
2022/06/11 06:19:54;;;;;;;2.53;2.43;;;25.30;50.60;;;;;;5057879;28;20435;-84
2022/06/11 06:22:22;;;;;;;2.50;2.40;;;25.30;50.60;;;;;;5055584;28;20542;-84
2022/06/11 06:24:50;;;;;;;2.77;2.30;;;25.30;50.50;;;;;;5054829;28;20537;-84
2022/06/11 06:27:18;;;;;;;2.40;2.30;;;25.40;50.70;;;;;;5057251;28;20477;-84
2022/06/11 06:29:48;;;;;;;2.00;1.80;;;25.40;50.60;;;;;;5054111;28;20467;-85
2022/06/11 06:32:16;;;;;;;1.97;1.97;;;25.40;50.50;;;;;;5057958;28;20471;-84
2022/06/11 06:34:44;;;;;;;2.17;2.00;;;25.50;50.60;;;;;;5062540;28;20453;-85
2022/06/11 06:37:12;;;;;;;2.07;1.97;;;25.50;50.40;;;;;;5065221;28;20425;-85
2022/06/11 06:39:40;;;;;;;2.03;1.93;;;25.50;50.40;;;;;;5067370;28;20429;-85
2022/06/11 06:42:08;;;;;;;2.23;2.03;;;25.50;50.40;;;;;;5067638;28;20533;-83
2022/06/11 06:44:36;;;;;;;2.30;2.10;;;25.60;50.30;;;;;;5070687;28;20440;-84
2022/06/11 06:47:06;;;;;;;2.43;2.00;;;25.70;50.20;;;;;;5068445;28;20446;-85
2022/06/11 06:49:34;;;;;;;2.10;2.00;;;25.70;50.30;;;;;;5070206;28;20448;-84
2022/06/11 06:52:03;;;;;;;1.90;1.90;;;25.70;50.10;;;;;;5064996;28;20433;-84
2022/06/11 06:54:31;;;;;;;2.47;2.30;;;25.70;50.10;;;;;;5068034;28;20473;-85
2022/06/11 06:56:59;;;;;;;2.47;2.37;;;25.80;50.00;;;;;;5061004;28;20425;-84
2022/06/11 06:59:27;;;;;;;2.30;2.10;;;25.80;50.00;;;;;;5059416;28;20447;-84
2022/06/11 07:01:55;;;;;;;2.40;2.20;;;25.80;49.90;;;;;;5060256;28;20532;-85
2022/06/11 07:04:25;;;;;;;2.17;2.07;;;25.90;49.80;;;;;;5059376;28;20521;-84
2022/06/11 07:06:55;;;;;;;2.57;2.47;;;25.90;49.70;;;;;;5059986;28;20417;-84
2022/06/11 07:09:23;;;;;;;2.17;2.07;;;26.00;49.60;;;;;;5059819;28;20443;-84
2022/06/11 07:11:51;;;;;;;2.70;2.50;;;26.00;49.50;;;;;;5060025;28;20518;-84
2022/06/11 07:14:19;;;;;;;2.27;2.17;;;26.00;49.50;;;;;;5058904;28;20490;-85
2022/06/11 07:16:49;;;;;;;2.53;2.07;;;26.10;49.50;;;;;;5059227;28;20944;-84
2022/06/11 07:19:18;;;;;;;2.70;2.47;;;26.10;49.20;;;;;;5059867;28;20445;-84
2022/06/11 07:21:49;;;;;;;2.47;2.27;;;26.10;49.20;;;;;;5060422;28;20554;-84
2022/06/11 07:24:19;;;;;;;2.50;2.30;;;26.20;49.40;;;;;;5059963;28;20462;-84
2022/06/11 07:26:55;;;;;;;2.53;2.20;;;26.20;49.40;;;;;;5059753;28;20904;-84
2022/06/11 07:29:25;;;;;;;2.13;2.03;;;26.20;49.30;;;;;;5060302;28;20439;-85
2022/06/11 07:31:55;;;;;;;2.50;2.30;;;26.30;49.30;;;;;;5064133;28;20935;-84
2022/06/11 07:34:23;;;;;;;1.97;1.87;;;26.30;49.20;;;;;;5064648;28;20432;-84
2022/06/11 07:36:53;;;;;;;2.00;1.90;;;26.40;49.20;;;;;;5066504;28;20459;-84
2022/06/11 07:39:21;;;;;;;2.73;2.00;;;26.40;49.10;;;;;;5059344;28;20512;-85
2022/06/11 07:41:49;;;;;;;2.27;2.07;;;26.50;49.00;;;;;;5058934;28;20441;-84
2022/06/11 07:44:17;;;;;;;2.50;2.30;;;26.50;49.00;;;;;;5061394;28;20454;-85
2022/06/11 07:46:45;;;;;;;2.23;2.10;;;26.60;49.00;;;;;;5062150;28;20450;-84
2022/06/11 07:49:14;;;;;;;4.40;2.20;;;26.60;49.00;;;;;;5059409;28;20417;-85
2022/06/11 07:51:42;;;;;;;2.60;1.87;;;26.60;48.90;;;;;;5060191;28;20475;-85
2022/06/11 07:54:11;;;;;;;2.00;1.90;;;26.70;48.90;;;;;;5058013;28;20474;-84
2022/06/11 07:56:39;;;;;;;2.30;2.00;;;26.80;48.80;;;;;;5056461;28;20481;-85
2022/06/11 07:59:08;;;;;;;2.23;1.90;;;26.90;48.90;;;;;;5057137;28;20481;-86
2022/06/11 08:01:36;;;;;;;2.77;2.03;;;26.90;48.60;;;;;;5059163;28;20453;-86
2022/06/11 08:04:04;;;;;;;1.90;1.80;;;27.00;48.60;;;;;;5060593;28;20451;-86
2022/06/11 08:06:32;;;;;;;2.10;2.00;;;27.00;48.70;;;;;;5063090;28;20473;-85
2022/06/11 08:09:01;;;;;;;2.97;2.40;;;27.10;48.50;;;;;;5061512;28;20435;-85
2022/06/11 08:11:30;;;;;;;2.20;2.00;;;27.20;48.50;;;;;;5058787;28;20474;-86
2022/06/11 08:13:58;;;;;;;2.00;1.90;;;27.30;48.50;;;;;;5059064;28;20515;-85
2022/06/11 08:16:26;;;;;;;2.20;2.10;;;27.40;48.30;;;;;;5057720;28;20430;-85
2022/06/11 08:18:54;;;;;;;2.20;2.00;;;27.40;48.30;;;;;;5058091;28;20441;-85
2022/06/11 08:21:22;;;;;;;2.10;2.00;;;27.50;48.20;;;;;;5056985;28;21004;-85
2022/06/11 08:23:50;;;;;;;2.03;1.83;;;27.50;48.20;;;;;;5053826;28;20431;-85
2022/06/11 08:26:19;;;;;;;2.77;2.40;;;27.60;48.20;;;;;;5055391;28;20508;-85
2022/06/11 08:28:49;;;;;;;2.20;2.00;;;27.70;48.00;;;;;;5054763;28;20545;-85
2022/06/11 08:31:17;;;;;;;2.20;2.00;;;27.80;48.00;;;;;;5061445;28;20462;-85
2022/06/11 08:33:45;;;;;;;2.20;1.70;;;27.90;47.90;;;;;;5062983;28;20499;-85
2022/06/11 08:36:18;;;;;;;3.30;2.10;;;27.90;47.80;;;;;;5063416;28;20438;-85
2022/06/11 08:38:46;;;;;;;2.37;2.17;;;28.00;47.70;;;;;;5057901;28;20477;-86
2022/06/11 08:41:16;;;;;;;2.20;2.10;;;28.10;47.80;;;;;;5059202;28;20528;-86
2022/06/11 08:43:54;;;;;;;1.93;1.83;;;28.20;47.70;;;;;;5058271;28;20503;-85
2022/06/11 08:46:22;;;;;;;1.97;1.87;;;28.30;47.50;;;;;;5058142;28;20462;-85
2022/06/11 08:48:54;;;;;;;2.83;2.03;;;28.40;47.40;;;;;;5056947;28;20446;-85
2022/06/11 08:51:24;;;;;;;1.93;1.83;;;28.40;47.40;;;;;;5056972;28;20498;-84
2022/06/11 08:53:52;;;;;;;2.60;2.40;;;28.50;47.10;;;;;;5057586;28;20462;-85
2022/06/11 08:56:23;;;;;;;1.87;1.77;;;28.60;47.30;;;;;;5056824;28;20478;-84
2022/06/11 08:59:03;;;;;;;1.87;1.77;;;28.70;46.90;;;;;;5056958;28;20481;-85
2022/06/11 09:01:35;;;;;;;1.90;1.80;;;28.60;47.00;;;;;;5056379;28;20478;-85
2022/06/11 09:04:10;;;;;;;2.40;2.20;;;28.60;47.20;;;;;;5055894;28;20506;-85
2022/06/11 09:06:55;;;;;;;2.30;2.10;;;28.70;47.20;;;;;;5055665;28;20450;-86
2022/06/11 09:09:26;;;;;;;2.10;1.90;;;28.70;47.00;;;;;;5052847;28;20521;-85
2022/06/11 09:12:02;;;;;;;2.37;1.90;;;28.70;47.20;;;;;;5055190;28;20498;-87
2022/06/11 09:14:53;;;;;;;2.60;1.77;;;28.90;47.00;;;;;;5052703;28;20446;-84
2022/06/11 09:17:47;;;;;;;2.10;2.00;;;28.90;46.70;;;;;;5041754;28;20434;-86
2022/06/11 09:20:23;;;;;;;3.27;2.03;;;29.00;46.70;;;;;;5052258;28;20470;-87
2022/06/11 09:23:18;;;;;;;2.73;2.00;;;29.10;46.80;;;;;;5051749;28;20533;-85
2022/06/11 09:25:53;;;;;;;2.20;1.83;;;29.10;46.70;;;;;;5054422;28;20446;-85
2022/06/11 09:28:27;;;;;;;2.80;1.87;;;29.00;46.60;;;;;;5056026;28;20444;-84
2022/06/11 09:31:00;;;;;;;2.50;1.87;;;29.10;46.80;;;;;;5054731;28;20522;-85
2022/06/11 09:33:31;;;;;;;2.13;2.03;;;29.20;46.60;;;;;;5052046;28;20443;-84
2022/06/11 09:36:01;;;;;;;2.13;1.90;;;29.30;46.50;;;;;;5052290;28;20446;-86
2022/06/11 09:38:33;;;;;;;3.53;2.27;;;29.40;46.60;;;;;;5051792;28;20441;-85
2022/06/11 09:41:08;;;;;;;2.33;2.03;;;29.40;46.20;;;;;;5052005;28;20940;-85
2022/06/11 09:43:40;;;;;;;3.27;1.90;;;29.50;46.60;;;;;;5051722;28;20448;-86
2022/06/11 09:46:14;;;;;;;1.70;1.60;;;29.60;46.50;;;;;;5051688;28;20451;-86
2022/06/11 09:48:51;;;;;;;2.63;1.80;;;29.80;46.20;;;;;;5055894;28;20511;-87
2022/06/11 09:51:23;;;;;;;2.67;2.07;;;29.90;45.80;;;;;;5069065;28;20488;-84
2022/06/11 09:53:59;;;;;;;2.10;1.97;;;30.10;45.90;;;;;;5057900;28;20570;-85
2022/06/11 09:56:31;;;;;;;2.00;1.70;;;30.20;45.70;;;;;;5073368;28;20452;-85
2022/06/11 09:59:04;;;;;;;2.37;1.90;;;30.40;45.50;;;;;;5075170;28;20445;-85
2022/06/11 10:01:38;;;;;;;2.43;2.30;;;30.50;45.30;;;;;;5075397;28;20492;-85
2022/06/11 10:04:07;;;;;;;4.00;1.80;;;30.60;45.20;;;;;;5079588;28;20449;-85
2022/06/11 10:06:38;;;;;;;1.77;1.67;;;30.70;45.00;;;;;;5076718;28;20495;-87
2022/06/11 10:09:10;;;;;;;1.80;1.57;;;30.80;45.00;;;;;;5077232;28;20511;-85
2022/06/11 10:11:41;;;;;;;3.90;1.93;;;30.90;44.80;;;;;;5080400;28;20459;-84
2022/06/11 10:16:57;;;;;;;3.37;2.10;;;31.20;44.60;;;;;;5077407;28;20476;-85
2022/06/11 10:19:26;;;;;;;3.27;1.57;;;31.30;44.50;;;;;;5076762;28;20529;-85
2022/06/11 10:21:57;;;;;;;2.87;1.90;;;31.40;44.30;;;;;;5077919;28;21054;-85
2022/06/11 10:24:25;;;;;;;2.73;1.93;;;31.50;44.20;;;;;;5077861;28;20469;-85
2022/06/11 10:26:54;;;;;;;2.23;2.00;;;31.60;44.00;;;;;;5078367;28;20545;-84
2022/06/11 10:29:33;;;;;;;1.90;1.80;;;31.70;44.00;;;;;;5077294;28;20509;-84
2022/06/11 10:32:05;;;;;;;1.73;1.63;;;31.80;44.00;;;;;;5077961;28;20468;-84
2022/06/11 10:34:34;;;;;;;3.83;2.03;;;31.90;44.10;;;;;;5076345;28;21031;-84
2022/06/11 10:37:05;;;;;;;1.90;1.70;;;32.00;43.90;;;;;;5075395;28;20952;-85
2022/06/11 10:39:37;;;;;;;3.00;1.80;;;32.00;43.40;;;;;;5075014;28;20528;-85
2022/06/11 10:42:07;;;;;;;1.60;1.50;;;31.90;43.50;;;;;;5074967;28;20549;-84
2022/06/11 10:44:41;;;;;;;3.00;1.87;;;31.90;43.80;;;;;;5075095;28;20445;-85
2022/06/11 10:47:18;;;;;;;3.13;2.03;;;31.80;43.70;;;;;;5075283;28;20450;-85
2022/06/11 10:49:47;;;;;;;3.03;1.70;;;31.60;44.00;;;;;;5077654;28;20455;-85
2022/06/11 10:52:26;;;;;;;4.10;2.30;;;31.60;44.30;;;;;;5076528;28;20499;-85
2022/06/11 10:54:54;;;;;;;3.73;1.90;;;31.80;44.10;;;;;;5076432;28;20449;-84
2022/06/11 10:57:25;;;;;;;3.30;2.03;;;31.70;43.80;;;;;;5075396;28;20495;-86
2022/06/11 10:59:56;;;;;;;2.57;1.80;;;31.60;43.90;;;;;;5074799;28;20438;-86
2022/06/11 11:02:27;;;;;;;3.13;2.20;;;31.80;44.20;;;;;;5075250;28;20517;-86
2022/06/11 11:04:58;;;;;;;3.07;1.83;;;31.70;43.80;;;;;;5074608;28;20450;-86
2022/06/11 11:07:26;;;;;;;3.70;1.80;;;31.70;44.00;;;;;;5075200;28;20442;-86
2022/06/11 11:09:58;;;;;;;2.20;1.77;;;31.90;44.00;;;;;;5074378;28;21487;-86
2022/06/11 11:12:27;;;;;;;3.67;1.60;;;32.00;43.70;;;;;;5075013;28;21068;-86
2022/06/11 11:15:03;;;;;;;3.70;1.60;;;32.00;43.60;;;;;;5075081;28;20446;-87
2022/06/11 11:17:33;;;;;;;1.93;1.80;;;32.10;43.40;;;;;;5074960;28;20483;-85
2022/06/11 11:20:34;;;;;;;2.00;1.80;;;32.20;43.40;;;;;;5074613;28;20499;-85
2022/06/11 11:23:06;;;;;;;2.30;1.80;;;32.10;43.20;;;;;;5075495;28;20464;-86
2022/06/11 11:25:36;;;;;;;3.43;1.90;;;32.30;43.50;;;;;;5073899;28;20476;-85
2022/06/11 11:28:05;;;;;;;2.67;1.70;;;32.30;43.00;;;;;;5075449;28;20480;-84
2022/06/11 11:30:35;;;;;;;2.07;1.63;;;32.40;43.30;;;;;;5074844;28;20541;-85
2022/06/11 11:33:22;;;;;;;3.40;1.93;;;32.30;43.10;;;;;;5074189;28;20477;-86
2022/06/11 11:35:59;;;;;;;2.33;1.60;;;32.30;43.20;;;;;;5074423;28;20451;-84
2022/06/11 11:38:27;;;;;;;4.10;2.33;;;32.20;43.30;;;;;;5074458;28;20442;-86
2022/06/11 11:40:58;;;;;;;3.47;2.00;;;32.20;43.30;;;;;;5073918;28;20446;-85
2022/06/11 11:43:27;;;;;;;2.27;1.60;;;32.10;43.20;;;;;;5074236;28;20438;-85
2022/06/11 11:45:57;;;;;;;1.70;1.60;;;32.10;43.40;;;;;;5074055;28;20472;-85
2022/06/11 11:48:34;;;;;;;2.57;1.70;;;32.00;43.40;;;;;;5074212;28;20468;-85
2022/06/11 11:51:04;;;;;;;2.50;1.80;;;32.10;43.70;;;;;;5073862;28;20499;-85
2022/06/11 11:53:35;;;;;;;3.10;2.03;;;32.00;43.50;;;;;;5073527;28;20568;-85
2022/06/11 11:56:04;;;;;;;2.60;2.00;;;32.20;43.50;;;;;;5073387;28;20797;-86
2022/06/11 11:58:33;;;;;;;2.33;1.90;;;32.40;43.30;;;;;;5074048;28;20446;-85
2022/06/11 12:01:03;;;;;;;3.87;2.10;;;32.40;42.80;;;;;;5073295;28;20489;-87
2022/06/11 12:03:36;;;;;;;3.60;1.73;;;32.50;43.00;;;;;;5073707;28;20442;-85
2022/06/11 12:06:04;;;;;;;3.23;1.70;;;32.60;42.90;;;;;;5073323;28;20445;-86
2022/06/11 12:08:37;;;;;;;2.93;1.60;;;32.70;42.60;;;;;;5073438;28;20442;-85
2022/06/11 12:11:06;;;;;;;1.93;1.73;;;32.80;42.40;;;;;;5073521;28;20495;-85
2022/06/11 12:13:44;;;;;;;1.80;1.70;;;32.90;42.10;;;;;;5073144;28;20573;-85
2022/06/11 12:16:17;;;;;;;2.43;2.00;;;33.10;41.90;;;;;;5073315;28;20867;-85
2022/06/11 12:18:50;;;;;;;2.93;1.83;;;33.10;41.80;;;;;;5073555;28;20540;-85
2022/06/11 12:21:19;;;;;;;2.10;1.60;;;33.20;41.90;;;;;;5073272;28;20552;-85
2022/06/11 12:23:49;;;;;;;3.30;2.00;;;33.10;41.50;;;;;;5072911;28;20520;-84
2022/06/11 12:26:19;;;;;;;4.50;1.80;;;33.10;41.70;;;;;;5073177;28;20540;-86
2022/06/11 12:28:49;;;;;;;1.93;1.60;;;33.00;42.10;;;;;;5073517;28;20446;-85
2022/06/11 12:31:21;;;;;;;1.60;1.50;;;33.10;42.00;;;;;;5073140;28;20465;-86
2022/06/11 12:33:51;;;;;;;3.10;1.93;;;33.10;41.80;;;;;;5072488;28;20478;-85
2022/06/11 12:36:26;;;;;;;2.63;1.93;;;33.20;41.70;;;;;;5072654;28;21004;-86
2022/06/11 12:38:56;;;;;;;9.67;1.97;;;33.30;41.70;;;;;;5072596;28;20513;-85
2022/06/11 12:41:35;;;;;;;1.83;1.70;;;33.30;41.50;;;;;;5072543;28;20544;-85
2022/06/11 12:44:24;;;;;;;1.87;1.73;;;33.50;41.50;;;;;;5072789;28;20524;-85
2022/06/11 12:46:54;;;;;;;3.37;1.67;;;33.50;41.20;;;;;;5072645;28;20472;-85
2022/06/11 12:49:26;;;;;;;2.70;1.50;;;33.60;41.10;;;;;;5072672;28;20449;-85
2022/06/11 12:52:08;;;;;;;4.17;1.90;;;33.70;41.10;;;;;;5072612;28;20500;-84
2022/06/11 12:54:45;;;;;;;2.37;1.70;;;33.80;41.00;;;;;;5075696;28;20535;-84
2022/06/11 12:57:20;;;;;;;2.03;1.80;;;33.80;40.80;;;;;;5085343;28;20441;-84
2022/06/11 12:59:56;;;;;;;3.30;2.00;;;33.90;40.70;;;;;;5081956;28;20445;-84
2022/06/11 13:02:31;;;;;;;2.67;1.50;;;34.00;40.40;;;;;;5073979;28;20469;-84
2022/06/11 13:05:26;;;;;;;1.90;1.80;;;34.00;40.40;;;;;;5072975;28;20471;-85
2022/06/11 13:07:58;;;;;;;2.60;1.70;;;34.00;40.20;;;;;;5072273;28;20442;-85
2022/06/11 13:10:37;;;;;;;2.43;1.77;;;33.80;40.30;;;;;;5072313;28;20441;-86
2022/06/11 13:13:24;;;;;;;1.97;1.87;;;33.80;40.60;;;;;;5071906;28;20461;-85